createdAt,value
2019-05-17T00:00:44.032Z,96574.83
2019-05-17T00:05:47.431Z,96563.34
2019-05-17T00:10:50.898Z,96564.97
2019-05-17T00:15:56.523Z,96554.34
2019-05-17T00:20:59.444Z,96537.98
2019-05-17T00:26:03.605Z,96531.69
2019-05-17T00:31:07.002Z,96525.64
2019-05-17T00:36:10.702Z,96521.59
2019-05-17T00:41:14.103Z,96512.63
2019-05-17T00:46:17.510Z,96513.70
2019-05-17T00:51:20.906Z,96516.61
2019-05-17T00:56:26.483Z,96516.77
2019-05-17T01:01:29.447Z,96513.59
2019-05-17T01:06:32.912Z,96507.94
2019-05-17T01:11:36.683Z,96501.42
2019-05-17T01:16:40.199Z,96491.61
2019-05-17T01:21:43.598Z,96488.89
2019-05-17T01:26:47.082Z,96491.34
2019-05-17T01:31:50.468Z,96489.19
2019-05-17T01:36:53.958Z,96489.73
2019-05-17T01:41:57.654Z,96490.31
2019-05-17T01:47:01.049Z,96489.03
2019-05-17T01:52:04.456Z,96484.12
2019-05-17T01:57:07.919Z,96488.48
2019-05-17T02:02:12.965Z,96480.05
2019-05-17T02:07:17.303Z,96471.03
2019-05-17T02:12:20.826Z,96467.50
2019-05-17T02:17:26.465Z,96465.88
2019-05-17T02:22:29.351Z,96462.85
2019-05-17T02:27:39.867Z,96467.22
2019-05-17T02:32:42.749Z,96462.03
2019-05-17T02:37:45.369Z,96462.88
2019-05-17T02:42:48.771Z,96459.31
2019-05-17T02:47:53.693Z,96466.94
2019-05-17T02:52:57.249Z,96463.69
2019-05-17T02:58:03.131Z,96447.59
2019-05-17T03:03:05.787Z,96444.32
2019-05-17T03:08:12.141Z,96441.06
2019-05-17T03:13:17.912Z,96438.60
2019-05-17T03:18:22.623Z,96429.86
2019-05-17T03:23:24.669Z,96430.14
2019-05-17T03:28:28.342Z,96429.03
2019-05-17T03:33:36.075Z,96432.58
2019-05-17T03:38:38.900Z,96436.95
2019-05-17T03:43:44.198Z,96439.97
2019-05-17T03:48:47.423Z,96431.24
2019-05-17T03:53:53.121Z,96435.33
2019-05-17T03:58:55.972Z,96434.77
2019-05-17T04:04:02.561Z,96430.97
2019-05-17T04:09:07.229Z,96431.77
2019-05-17T04:14:13.668Z,96434.52
2019-05-17T04:19:15.980Z,96439.14
2019-05-17T04:24:19.383Z,96438.31
2019-05-17T04:29:22.938Z,96432.59
2019-05-17T04:34:26.260Z,96440.22
2019-05-17T04:39:32.509Z,96441.58
2019-05-17T04:44:34.788Z,96436.13
2019-05-17T04:49:38.175Z,96432.60
2019-05-17T04:54:42.479Z,96434.23
2019-05-17T04:59:46.059Z,96425.24
2019-05-17T05:04:49.735Z,96427.41
2019-05-17T05:09:53.307Z,96417.55
2019-05-17T05:14:56.708Z,96432.56
2019-05-17T05:20:02.803Z,96430.91
2019-05-17T05:25:06.436Z,96427.05
2019-05-17T05:30:12.096Z,96432.75
2019-05-17T05:35:15.682Z,96428.14
2019-05-17T05:40:21.292Z,96428.66
2019-05-17T05:45:24.270Z,96414.51
2019-05-17T05:50:27.933Z,96422.63
2019-05-17T05:55:32.144Z,96415.20
2019-05-17T06:00:35.711Z,96425.22
2019-05-17T06:05:39.144Z,96407.70
2019-05-17T06:10:43.034Z,96418.05
2019-05-17T06:15:46.573Z,96423.43
2019-05-17T06:20:52.289Z,96419.50
2019-05-17T06:25:55.149Z,96413.09
2019-05-17T06:30:58.550Z,96414.28
2019-05-17T06:36:02.780Z,96407.56
2019-05-17T06:41:06.687Z,96410.92
2019-05-17T06:46:12.228Z,96409.11
2019-05-17T06:51:15.292Z,96419.24
2019-05-17T06:56:18.690Z,96403.50
2019-05-17T07:01:22.095Z,96387.70
2019-05-17T07:06:29.511Z,96383.95
2019-05-17T07:11:32.331Z,96376.80
2019-05-17T07:16:35.737Z,96380.06
2019-05-17T07:21:40.430Z,96380.44
2019-05-17T07:26:44.024Z,96380.40
2019-05-17T07:31:49.663Z,96366.00
2019-05-17T07:36:53.078Z,96361.67
2019-05-17T07:41:56.496Z,96369.04
2019-05-17T07:47:00.209Z,96368.00
2019-05-17T07:52:03.632Z,96367.88
2019-05-17T07:57:07.036Z,96353.95
2019-05-17T08:02:10.724Z,96350.12
2019-05-17T08:07:14.126Z,96346.97
2019-05-17T08:12:19.863Z,96332.28
2019-05-17T08:17:22.727Z,96326.83
2019-05-17T08:22:26.161Z,96320.54
2019-05-17T08:27:29.910Z,96315.91
2019-05-17T08:32:33.458Z,96307.88
2019-05-17T08:37:36.874Z,96312.75
2019-05-17T08:42:40.783Z,96311.71
2019-05-17T08:47:44.458Z,96298.20
2019-05-17T08:52:49.463Z,96296.37
2019-05-17T08:57:53.047Z,96291.20
2019-05-17T09:02:56.449Z,96286.16
2019-05-17T09:08:00.145Z,96274.28
2019-05-17T09:13:03.513Z,96271.50
2019-05-17T09:18:06.989Z,96269.17
2019-05-17T09:23:10.380Z,96252.52
2019-05-17T09:28:14.088Z,96246.88
2019-05-17T09:33:19.249Z,96252.58
2019-05-17T09:38:22.689Z,96247.21
2019-05-17T09:43:26.084Z,96240.45
2019-05-17T09:48:30.735Z,96225.20
2019-05-17T09:53:34.288Z,96220.55
2019-05-17T09:58:39.667Z,96224.95
2019-05-17T10:03:43.247Z,96223.00
2019-05-17T10:08:46.664Z,96213.95
2019-05-17T10:13:50.131Z,96213.10
2019-05-17T10:18:53.538Z,96207.65
2019-05-17T10:23:57.006Z,96208.03
2019-05-17T10:29:00.421Z,96195.70
2019-05-17T10:34:03.986Z,96192.47
2019-05-17T10:39:09.942Z,96192.58
2019-05-17T10:44:13.496Z,96187.83
2019-05-17T10:49:16.960Z,96191.73
2019-05-17T10:54:20.739Z,96178.93
2019-05-17T10:59:24.226Z,96176.66
2019-05-17T11:04:27.617Z,96165.92
2019-05-17T11:09:31.469Z,96159.13
2019-05-17T11:14:48.949Z,96155.95
2019-05-17T11:19:40.104Z,96161.45
2019-05-17T11:24:43.600Z,96157.90
2019-05-17T11:29:47.021Z,96150.61
2019-05-17T11:34:50.416Z,96153.52
2019-05-17T11:39:53.814Z,96143.28
2019-05-17T11:44:57.260Z,96147.73
2019-05-17T11:50:00.649Z,96137.97
2019-05-17T11:55:05.984Z,96134.48
2019-05-17T12:00:10.319Z,96134.58
2019-05-17T12:05:14.458Z,96135.46
2019-05-17T12:10:18.157Z,96127.59
2019-05-17T12:15:21.487Z,96123.13
2019-05-17T12:20:25.323Z,96123.80
2019-05-17T12:25:29.043Z,96114.45
2019-05-17T12:30:32.609Z,96112.91
2019-05-17T12:35:36.115Z,96116.71
2019-05-17T12:40:39.516Z,96115.31
2019-05-17T12:45:42.937Z,96106.91
2019-05-17T12:50:46.356Z,96105.61
2019-05-17T12:55:49.767Z,96102.98
2019-05-17T13:00:53.191Z,96104.05
2019-05-17T13:05:56.585Z,96102.45
2019-05-17T13:10:59.986Z,96085.87
2019-05-17T13:16:16.813Z,96085.63
2019-05-17T13:21:08.501Z,96082.83
2019-05-17T13:26:11.917Z,96080.39
2019-05-17T13:31:15.582Z,96070.58
2019-05-17T13:36:18.980Z,96062.43
2019-05-17T13:41:22.447Z,96060.85
2019-05-17T13:46:33.074Z,96059.41
2019-05-17T13:51:31.250Z,96046.73
2019-05-17T13:56:35.043Z,96047.94
2019-05-17T14:01:38.522Z,96047.06
2019-05-17T14:06:41.900Z,96038.56
2019-05-17T14:11:45.299Z,96033.23
2019-05-17T14:16:48.689Z,96035.59
2019-05-17T14:21:52.440Z,96038.99
2019-05-17T14:26:55.932Z,96035.38
2019-05-17T14:31:59.327Z,96035.67
2019-05-17T14:37:02.742Z,96027.94
2019-05-17T14:42:06.115Z,96026.47
2019-05-17T14:47:09.541Z,96027.56
2019-05-17T14:52:13.174Z,96027.42
2019-05-17T14:57:16.571Z,96024.34
2019-05-17T15:02:19.963Z,96022.98
2019-05-17T15:07:23.604Z,96020.28
2019-05-17T15:12:28.757Z,96011.12
2019-05-17T15:17:35.001Z,96013.63
2019-05-17T15:22:37.231Z,96012.58
2019-05-17T15:27:40.869Z,96007.63
2019-05-17T15:32:44.348Z,96007.25
2019-05-17T15:37:47.721Z,96004.77
2019-05-17T15:42:51.119Z,96004.49
2019-05-17T15:47:54.750Z,95999.95
2019-05-17T15:52:58.145Z,95988.64
2019-05-17T15:58:01.559Z,95988.69
2019-05-17T16:03:04.949Z,95988.48
2019-05-17T16:08:08.577Z,95988.28
2019-05-17T16:13:11.986Z,95984.04
2019-05-17T16:18:15.383Z,95979.85
2019-05-17T16:23:18.772Z,95981.42
2019-05-17T16:28:22.162Z,95982.20
2019-05-17T16:33:25.796Z,95980.31
2019-05-17T16:38:29.214Z,95976.73
2019-05-17T16:43:32.844Z,95972.47
2019-05-17T16:48:36.237Z,95964.16
2019-05-17T16:53:39.634Z,95963.08
2019-05-17T16:58:43.031Z,95961.23
2019-05-17T17:03:46.680Z,95959.66
2019-05-17T17:08:50.088Z,95959.55
2019-05-17T17:13:53.491Z,95961.03
2019-05-17T17:18:57.146Z,95960.69
2019-05-17T17:24:00.793Z,95950.89
2019-05-17T17:29:04.704Z,95957.36
2019-05-17T17:34:08.339Z,95953.61
2019-05-17T17:39:11.749Z,95949.73
2019-05-17T17:44:15.400Z,95950.84
2019-05-17T17:49:18.802Z,95959.98
2019-05-17T17:54:22.194Z,95956.66
2019-05-17T17:59:25.591Z,95959.23
2019-05-17T18:04:29.085Z,95965.61
2019-05-17T18:09:32.502Z,95963.77
2019-05-17T18:14:35.914Z,95960.19
2019-05-17T18:19:39.325Z,95966.73
2019-05-17T18:24:42.720Z,95969.70
2019-05-17T18:29:46.171Z,95968.27
2019-05-17T18:34:49.581Z,95974.70
2019-05-17T18:39:52.977Z,95982.39
2019-05-17T18:44:56.403Z,95987.31
2019-05-17T18:49:59.798Z,95989.56
2019-05-17T18:55:04.353Z,95997.79
2019-05-17T19:00:08.897Z,96000.88
2019-05-17T19:05:12.966Z,96002.12
2019-05-17T19:10:16.577Z,96005.38
2019-05-17T19:15:20.109Z,96013.41
2019-05-17T19:20:23.576Z,96009.57
2019-05-17T19:25:26.999Z,96018.02
2019-05-17T19:30:30.460Z,96024.42
2019-05-17T19:35:34.271Z,96030.16
2019-05-17T19:40:37.627Z,96034.53
2019-05-17T19:45:41.017Z,96035.41
2019-05-17T19:50:44.416Z,96039.19
2019-05-17T19:55:47.846Z,96039.01
2019-05-17T20:00:51.439Z,96043.78
2019-05-17T20:05:54.829Z,96049.00
2019-05-17T20:10:58.467Z,96054.64
2019-05-17T20:16:01.859Z,96050.83
2019-05-17T20:21:05.270Z,96051.08
2019-05-17T20:26:08.666Z,96049.39
2019-05-17T20:31:12.298Z,96041.69
2019-05-17T20:36:15.691Z,96041.69
2019-05-17T20:41:19.096Z,96047.43
2019-05-17T20:46:22.725Z,96043.88
2019-05-17T20:51:26.189Z,96041.69
2019-05-17T20:56:32.869Z,96044.50
2019-05-17T21:01:34.704Z,96041.67
2019-05-17T21:06:38.122Z,96034.84
2019-05-17T21:11:41.514Z,96034.84
2019-05-17T21:16:44.908Z,96044.58
2019-05-17T21:21:48.381Z,96046.19
2019-05-17T21:26:51.785Z,96048.95
2019-05-17T21:31:55.210Z,96044.97
2019-05-17T21:36:58.597Z,96044.97
2019-05-17T21:42:01.998Z,96029.49
2019-05-17T21:47:05.721Z,96029.49
2019-05-17T21:52:09.119Z,96040.75
2019-05-17T21:57:12.585Z,96035.97
2019-05-17T22:02:15.985Z,96031.92
2019-05-17T22:07:19.381Z,96031.92
2019-05-17T22:12:22.777Z,96041.02
2019-05-17T22:17:26.168Z,96036.79
2019-05-17T22:22:29.556Z,96035.23
2019-05-17T22:27:32.964Z,96035.23
2019-05-17T22:32:36.656Z,96041.20
2019-05-17T22:37:40.045Z,96047.53
2019-05-17T22:42:43.520Z,96056.35
2019-05-17T22:47:46.910Z,96058.59
2019-05-17T22:52:50.302Z,96064.09
2019-05-17T22:57:53.703Z,96069.30
2019-05-17T23:02:57.169Z,96065.33
2019-05-17T23:08:00.570Z,96064.62
2019-05-17T23:13:03.959Z,96063.25
2019-05-17T23:18:07.362Z,96053.05
2019-05-17T23:23:10.759Z,96062.13
2019-05-17T23:28:14.414Z,96059.83
2019-05-17T23:33:17.827Z,96055.34
2019-05-17T23:38:21.275Z,96061.44
2019-05-17T23:43:24.671Z,96051.52
2019-05-17T23:48:28.072Z,96052.20
2019-05-17T23:53:31.464Z,96052.53
2019-05-17T23:58:34.935Z,96052.98
